Time,TemperatureF,DewpointF,PressureIn,WindDirection,WindDirectionDegrees,WindSpeedMPH,WindSpeedGustMPH,Humidity,HourlyPrecipIn,Conditions,Clouds,dailyrainin,SolarRadiationWatts/m^2,SoftwareType,DateUTC
2013-04-27 00:04:00,54.7,49.0,30.33,ENE,71,0.0,3.0,81,0.00,,,0.00,0,weatherlink.com 1.10,2013-04-27 04:04:00,
2013-04-27 00:19:00,54.1,49.0,30.34,SW,229,0.0,3.0,84,0.00,,,0.00,0,weatherlink.com 1.10,2013-04-27 04:19:00,
2013-04-27 00:34:00,54.9,50.0,30.33,SSW,207,0.0,3.0,83,0.00,,,0.00,0,weatherlink.com 1.10,2013-04-27 04:34:00,
2013-04-27 00:49:00,54.6,50.0,30.32,SSE,163,0.0,2.0,84,0.00,,,0.00,0,weatherlink.com 1.10,2013-04-27 04:49:00,
2013-04-27 01:04:00,54.3,50.0,30.33,SSE,163,0.0,0.0,85,0.00,,,0.00,0,weatherlink.com 1.10,2013-04-27 05:04:00,
2013-04-27 01:19:00,54.3,50.0,30.34,NW,317,1.0,3.0,86,0.00,,,0.00,0,weatherlink.com 1.10,2013-04-27 05:19:00,
2013-04-27 01:34:00,54.0,50.0,30.35,North,355,2.0,3.0,87,0.00,,,0.00,0,weatherlink.com 1.10,2013-04-27 05:34:00,
2013-04-27 01:49:00,54.1,50.0,30.36,NNW,348,0.0,0.0,86,0.01,,,0.01,0,weatherlink.com 1.10,2013-04-27 05:49:00,
2013-04-27 02:04:00,54.0,50.0,30.36,NNW,348,0.0,0.0,87,0.01,,,0.01,0,weatherlink.com 1.10,2013-04-27 06:04:00,
2013-04-27 02:19:00,53.6,51.0,30.36,NNW,348,0.0,0.0,89,0.03,,,0.03,0,weatherlink.com 1.10,2013-04-27 06:19:00,
2013-04-27 02:34:00,53.0,50.0,30.35,ENE,61,2.0,4.0,89,0.04,,,0.04,0,weatherlink.com 1.10,2013-04-27 06:34:00,
2013-04-27 02:49:00,52.8,50.0,30.35,East,87,0.0,1.0,90,0.05,,,0.06,0,weatherlink.com 1.10,2013-04-27 06:49:00,
2013-04-27 03:04:00,52.4,50.0,30.34,East,87,0.0,0.0,91,0.08,,,0.09,0,weatherlink.com 1.10,2013-04-27 07:04:00,
2013-04-27 03:19:00,52.1,50.0,30.33,East,96,0.0,2.0,92,0.09,,,0.12,0,weatherlink.com 1.10,2013-04-27 07:19:00,
2013-04-27 03:34:00,52.0,50.0,30.31,SSE,154,0.0,4.0,93,0.11,,,0.15,0,weatherlink.com 1.10,2013-04-27 07:34:00,
2013-04-27 03:49:00,51.9,50.0,30.32,SSE,155,0.0,2.0,93,0.11,,,0.17,0,weatherlink.com 1.10,2013-04-27 07:49:00,
2013-04-27 04:04:00,51.8,50.0,30.30,SSE,155,0.0,1.0,93,0.08,,,0.18,0,weatherlink.com 1.10,2013-04-27 08:04:00,
2013-04-27 04:19:00,51.6,50.0,30.30,SSE,155,0.0,1.0,94,0.06,,,0.18,0,weatherlink.com 1.10,2013-04-27 08:19:00,
2013-04-27 04:34:00,51.5,50.0,30.30,SSE,155,0.0,0.0,94,0.03,,,0.18,0,weatherlink.com 1.10,2013-04-27 08:34:00,
2013-04-27 04:49:00,51.4,50.0,30.29,SSE,155,0.0,1.0,94,0.01,,,0.18,0,weatherlink.com 1.10,2013-04-27 08:49:00,
2013-04-27 05:04:00,51.3,50.0,30.30,SSE,155,0.0,0.0,94,0.02,,,0.20,0,weatherlink.com 1.10,2013-04-27 09:04:00,
2013-04-27 05:19:00,51.4,50.0,30.30,SSE,155,2.0,2.0,94,0.04,,,0.22,0,weatherlink.com 1.10,2013-04-27 09:19:00,
2013-04-27 05:34:00,51.8,50.0,30.30,South,177,3.0,4.0,94,0.07,,,0.25,0,weatherlink.com 1.10,2013-04-27 09:34:00,
2013-04-27 05:49:00,51.8,50.0,30.30,SSW,205,3.0,5.0,94,0.09,,,0.27,0,weatherlink.com 1.10,2013-04-27 09:49:00,
2013-04-27 06:04:00,51.8,50.0,30.31,SSW,205,2.0,3.0,94,0.07,,,0.27,0,weatherlink.com 1.10,2013-04-27 10:04:00,
2013-04-27 06:19:00,51.7,50.0,30.29,SE,139,1.0,2.0,94,0.06,,,0.28,0,weatherlink.com 1.10,2013-04-27 10:19:00,
2013-04-27 06:34:00,51.5,50.0,30.28,SSE,152,0.0,2.0,94,0.05,,,0.30,0,weatherlink.com 1.10,2013-04-27 10:34:00,
2013-04-27 06:49:00,51.3,50.0,30.27,South,188,1.0,4.0,94,0.04,,,0.31,0,weatherlink.com 1.10,2013-04-27 10:49:00,
2013-04-27 07:04:00,51.3,50.0,30.27,South,182,0.0,0.0,94,0.05,,,0.32,7,weatherlink.com 1.10,2013-04-27 11:04:00,
2013-04-27 07:19:00,51.4,50.0,30.27,NW,319,1.0,3.0,94,0.04,,,0.32,21,weatherlink.com 1.10,2013-04-27 11:19:00,
2013-04-27 07:34:00,51.4,50.0,30.27,WSW,241,0.0,1.0,94,0.02,,,0.32,16,weatherlink.com 1.10,2013-04-27 11:34:00,
2013-04-27 07:49:00,51.5,50.0,30.28,SSE,164,1.0,1.0,95,0.01,,,0.32,37,weatherlink.com 1.10,2013-04-27 11:49:00,
2013-04-27 08:04:00,51.8,50.0,30.29,SE,130,0.0,3.0,94,0.00,,,0.32,70,weatherlink.com 1.10,2013-04-27 12:04:00,
2013-04-27 08:19:00,52.4,51.0,30.29,ESE,115,1.0,3.0,93,0.00,,,0.32,86,weatherlink.com 1.10,2013-04-27 12:19:00,
2013-04-27 08:34:00,53.1,51.0,30.28,East,92,2.0,7.0,93,0.00,,,0.32,181,weatherlink.com 1.10,2013-04-27 12:34:00,
2013-04-27 08:49:00,53.9,52.0,30.28,SE,142,1.0,3.0,93,0.00,,,0.32,352,weatherlink.com 1.10,2013-04-27 12:49:00,
2013-04-27 09:04:00,55.0,51.0,30.28,ESE,109,4.0,10.0,85,0.00,,,0.32,221,weatherlink.com 1.10,2013-04-27 13:04:00,
2013-04-27 09:19:00,55.1,50.0,30.28,SSE,151,2.0,12.0,83,0.01,,,0.33,190,weatherlink.com 1.10,2013-04-27 13:19:00,
2013-04-27 09:35:00,55.6,50.0,30.28,SSE,160,1.0,7.0,82,0.01,,,0.33,186,weatherlink.com 1.10,2013-04-27 13:35:00,
2013-04-27 09:50:00,55.8,48.0,30.28,SE,126,7.0,8.0,75,0.01,,,0.33,176,weatherlink.com 1.10,2013-04-27 13:50:00,
2013-04-27 10:05:00,55.8,47.0,30.28,SSE,148,0.0,8.0,72,0.01,,,0.33,220,weatherlink.com 1.10,2013-04-27 14:05:00,
2013-04-27 10:20:00,56.3,49.0,30.28,East,97,2.0,8.0,76,0.00,,,0.33,490,weatherlink.com 1.10,2013-04-27 14:20:00,
2013-04-27 10:35:00,56.4,47.0,30.28,East,95,6.0,10.0,71,0.00,,,0.33,204,weatherlink.com 1.10,2013-04-27 14:35:00,
2013-04-27 10:50:00,55.7,46.0,30.29,ESE,109,5.0,11.0,69,0.00,,,0.33,72,weatherlink.com 1.10,2013-04-27 14:50:00,
2013-04-27 11:05:00,54.1,46.0,30.29,SE,138,2.0,14.0,75,0.01,,,0.34,21,weatherlink.com 1.10,2013-04-27 15:05:00,
2013-04-27 11:20:00,52.4,46.0,30.30,South,171,4.0,10.0,79,0.02,,,0.35,35,weatherlink.com 1.10,2013-04-27 15:20:00,
2013-04-27 11:35:00,51.1,46.0,30.30,SSE,148,0.0,3.0,84,0.04,,,0.37,77,weatherlink.com 1.10,2013-04-27 15:35:00,
2013-04-27 11:50:00,51.3,47.0,30.31,ENE,61,1.0,4.0,86,0.07,,,0.40,97,weatherlink.com 1.10,2013-04-27 15:50:00,
2013-04-27 12:05:00,51.7,48.0,30.31,NE,51,0.0,4.0,86,0.07,,,0.41,76,weatherlink.com 1.10,2013-04-27 16:05:00,
2013-04-27 12:20:00,51.7,47.0,30.32,East,82,0.0,2.0,84,0.08,,,0.43,23,weatherlink.com 1.10,2013-04-27 16:20:00,
2013-04-27 12:35:00,51.4,48.0,30.32,East,82,0.0,2.0,87,0.06,,,0.44,65,weatherlink.com 1.10,2013-04-27 16:35:00,
2013-04-27 12:50:00,51.2,48.0,30.32,ESE,103,0.0,1.0,89,0.05,,,0.45,40,weatherlink.com 1.10,2013-04-27 16:50:00,
2013-04-27 13:05:00,50.9,48.0,30.32,South,190,0.0,2.0,89,0.05,,,0.46,49,weatherlink.com 1.10,2013-04-27 17:05:00,
2013-04-27 13:20:00,50.9,48.0,30.31,SSE,151,0.0,1.0,88,0.04,,,0.47,76,weatherlink.com 1.10,2013-04-27 17:20:00,
2013-04-27 13:35:00,51.2,48.0,30.31,SW,236,1.0,3.0,90,0.03,,,0.47,67,weatherlink.com 1.10,2013-04-27 17:35:00,
2013-04-27 13:50:00,51.0,48.0,30.29,ESE,114,0.0,2.0,90,0.02,,,0.47,100,weatherlink.com 1.10,2013-04-27 17:50:00,
2013-04-27 14:05:00,51.3,48.0,30.28,SSW,201,1.0,5.0,88,0.01,,,0.47,141,weatherlink.com 1.10,2013-04-27 18:05:00,
2013-04-27 14:20:00,51.6,49.0,30.28,South,175,1.0,4.0,89,0.00,,,0.47,130,weatherlink.com 1.10,2013-04-27 18:20:00,
2013-04-27 14:35:00,51.9,49.0,30.27,SSW,202,2.0,4.0,88,0.00,,,0.47,218,weatherlink.com 1.10,2013-04-27 18:35:00,
2013-04-27 14:50:00,52.5,49.0,30.26,WSW,248,0.0,3.0,87,0.00,,,0.47,209,weatherlink.com 1.10,2013-04-27 18:50:00,
2013-04-27 15:05:00,52.6,49.0,30.27,West,279,1.0,4.0,86,0.00,,,0.47,114,weatherlink.com 1.10,2013-04-27 19:05:00,
2013-04-27 15:20:00,52.7,49.0,30.26,WNW,296,0.0,3.0,87,0.00,,,0.47,153,weatherlink.com 1.10,2013-04-27 19:20:00,
2013-04-27 15:35:00,53.0,49.0,30.25,SE,139,0.0,2.0,85,0.00,,,0.47,125,weatherlink.com 1.10,2013-04-27 19:35:00,
2013-04-27 15:50:00,53.4,50.0,30.25,NNE,19,1.0,3.0,87,0.00,,,0.47,70,weatherlink.com 1.10,2013-04-27 19:50:00,
2013-04-27 16:05:00,53.6,50.0,30.25,NW,313,0.0,4.0,86,0.00,,,0.47,74,weatherlink.com 1.10,2013-04-27 20:05:00,
2013-04-27 16:20:00,54.0,51.0,30.24,NW,323,0.0,2.0,88,0.00,,,0.47,123,weatherlink.com 1.10,2013-04-27 20:20:00,
2013-04-27 16:35:00,55.1,49.0,30.23,SE,127,2.0,5.0,80,0.00,,,0.47,165,weatherlink.com 1.10,2013-04-27 20:35:00,
2013-04-27 16:50:00,56.4,47.0,30.23,South,170,2.0,6.0,70,0.00,,,0.47,93,weatherlink.com 1.10,2013-04-27 20:50:00,
2013-04-27 17:05:00,56.5,46.0,30.23,ESE,119,1.0,5.0,69,0.00,,,0.47,40,weatherlink.com 1.10,2013-04-27 21:05:00,
2013-04-27 17:20:00,56.5,47.0,30.22,East,81,0.0,3.0,70,0.00,,,0.47,44,weatherlink.com 1.10,2013-04-27 21:20:00,
2013-04-27 17:35:00,56.6,46.0,30.21,ESE,111,2.0,6.0,68,0.00,,,0.47,60,weatherlink.com 1.10,2013-04-27 21:35:00,
2013-04-27 17:50:00,56.9,46.0,30.21,SSE,156,0.0,10.0,67,0.00,,,0.47,53,weatherlink.com 1.10,2013-04-27 21:50:00,
2013-04-27 18:05:00,56.8,46.0,30.22,East,96,3.0,11.0,67,0.00,,,0.47,33,weatherlink.com 1.10,2013-04-27 22:05:00,
2013-04-27 18:20:00,56.6,46.0,30.23,ESE,107,2.0,13.0,68,0.00,,,0.47,28,weatherlink.com 1.10,2013-04-27 22:20:00,
2013-04-27 18:35:00,56.6,46.0,30.22,SSW,212,2.0,9.0,69,0.00,,,0.47,30,weatherlink.com 1.10,2013-04-27 22:35:00,
2013-04-27 18:50:00,56.5,47.0,30.22,South,169,2.0,5.0,70,0.00,,,0.47,32,weatherlink.com 1.10,2013-04-27 22:50:00,
2013-04-27 19:05:00,56.2,47.0,30.21,ENE,76,2.0,9.0,72,0.00,,,0.47,30,weatherlink.com 1.10,2013-04-27 23:05:00,
2013-04-27 19:35:00,56.1,48.0,30.20,SSE,168,0.0,4.0,75,0.00,,,0.47,21,weatherlink.com 1.10,2013-04-27 23:35:00,
2013-04-27 19:50:00,56.0,49.0,30.19,SE,144,3.0,7.0,77,0.00,,,0.47,14,weatherlink.com 1.10,2013-04-27 23:50:00,
2013-04-27 20:05:00,55.6,49.0,30.18,South,174,2.0,7.0,77,0.00,,,0.47,0,weatherlink.com 1.10,2013-04-28 00:05:00,
2013-04-27 20:20:00,55.7,49.0,30.18,South,190,3.0,9.0,78,0.00,,,0.47,0,weatherlink.com 1.10,2013-04-28 00:20:00,
2013-04-27 20:35:00,55.9,49.0,30.18,SSE,151,4.0,8.0,78,0.00,,,0.47,0,weatherlink.com 1.10,2013-04-28 00:35:00,
2013-04-27 20:50:00,55.9,49.0,30.18,SSW,193,3.0,7.0,78,0.00,,,0.47,0,weatherlink.com 1.10,2013-04-28 00:50:00,
2013-04-27 21:05:00,55.8,49.0,30.19,SSW,205,3.0,12.0,79,0.00,,,0.47,0,weatherlink.com 1.10,2013-04-28 01:05:00,
2013-04-27 21:20:00,55.7,49.0,30.17,SSE,167,4.0,10.0,79,0.00,,,0.47,0,weatherlink.com 1.10,2013-04-28 01:20:00,
2013-04-27 21:35:00,55.8,49.0,30.18,South,189,5.0,7.0,79,0.00,,,0.47,0,weatherlink.com 1.10,2013-04-28 01:35:00,
2013-04-27 21:50:00,55.9,50.0,30.18,SSW,198,5.0,12.0,79,0.00,,,0.47,0,weatherlink.com 1.10,2013-04-28 01:50:00,
2013-04-27 22:05:00,55.7,49.0,30.18,East,101,3.0,8.0,79,0.00,,,0.47,0,weatherlink.com 1.10,2013-04-28 02:05:00,
2013-04-27 22:20:00,55.4,50.0,30.18,SSE,147,3.0,9.0,81,0.00,,,0.47,0,weatherlink.com 1.10,2013-04-28 02:20:00,
2013-04-27 22:35:00,55.6,50.0,30.17,South,175,4.0,12.0,80,0.00,,,0.47,0,weatherlink.com 1.10,2013-04-28 02:35:00,
2013-04-27 22:50:00,55.0,50.0,30.16,ENE,73,7.0,10.0,82,0.01,,,0.48,0,weatherlink.com 1.10,2013-04-28 02:50:00,
2013-04-27 23:05:00,55.1,49.0,30.17,SSW,201,0.0,8.0,81,0.01,,,0.48,0,weatherlink.com 1.10,2013-04-28 03:05:00,
2013-04-27 23:20:00,55.5,49.0,30.17,SSW,202,1.0,14.0,80,0.02,,,0.49,0,weatherlink.com 1.10,2013-04-28 03:20:00,
2013-04-27 23:35:00,55.4,49.0,30.18,SE,146,4.0,10.0,80,0.02,,,0.49,0,weatherlink.com 1.10,2013-04-28 03:35:00,
2013-04-27 23:50:00,55.2,49.0,30.17,SE,140,4.0,10.0,80,0.01,,,0.49,0,weatherlink.com 1.10,2013-04-28 03:50:00,